createdAt,value
2018-08-21T00:00:05.510Z,18.24
2018-08-21T00:01:31.922Z,18.29
2018-08-21T00:02:59.343Z,18.33
2018-08-21T00:04:26.736Z,18.35
2018-08-21T00:05:54.348Z,18.36
2018-08-21T00:07:21.629Z,18.38
2018-08-21T00:08:50.268Z,18.36
2018-08-21T00:10:16.821Z,18.32
2018-08-21T00:11:43.735Z,18.31
2018-08-21T00:13:11.140Z,18.33
2018-08-21T00:14:38.672Z,18.35
2018-08-21T00:16:06.274Z,18.36
2018-08-21T00:17:34.177Z,18.37
2018-08-21T00:18:59.399Z,18.33
2018-08-21T00:20:27.994Z,18.33
2018-08-21T00:21:55.495Z,18.34
2018-08-21T00:23:21.933Z,18.35
2018-08-21T00:24:49.106Z,18.28
2018-08-21T00:26:16.572Z,18.23
2018-08-21T00:27:45.093Z,18.18
2018-08-21T00:29:10.696Z,18.16
2018-08-21T00:30:38.033Z,18.15
2018-08-21T00:32:06.535Z,18.08
2018-08-21T00:33:33.266Z,17.98
2018-08-21T00:35:00.629Z,17.90
2018-08-21T00:36:27.261Z,17.84
2018-08-21T00:37:54.345Z,17.79
2018-08-21T00:39:21.766Z,17.79
2018-08-21T00:40:48.148Z,17.79
2018-08-21T00:42:15.622Z,17.80
2018-08-21T00:43:43.264Z,17.81
2018-08-21T00:45:10.946Z,17.79
2018-08-21T00:46:37.356Z,17.79
2018-08-21T00:48:04.658Z,17.80
2018-08-21T00:49:33.220Z,17.78
2018-08-21T00:50:59.334Z,17.69
2018-08-21T00:52:26.928Z,17.60
2018-08-21T00:53:53.722Z,17.51
2018-08-21T00:55:22.219Z,17.44
2018-08-21T00:56:48.595Z,17.28
2018-08-21T00:58:16.987Z,17.16
2018-08-21T00:59:44.612Z,17.16
2018-08-21T01:01:12.071Z,17.14
2018-08-21T01:02:39.565Z,17.06
2018-08-21T01:04:06.113Z,16.92
2018-08-21T01:05:34.597Z,16.81
2018-08-21T01:07:02.124Z,16.80
2018-08-21T01:08:29.587Z,16.75
2018-08-21T01:09:59.079Z,16.69
2018-08-21T01:11:24.160Z,16.64
2018-08-21T01:12:49.492Z,16.63
2018-08-21T01:14:16.865Z,16.59
2018-08-21T01:15:45.445Z,16.59
2018-08-21T01:17:11.053Z,16.52
2018-08-21T01:18:38.335Z,16.48
2018-08-21T01:20:05.823Z,16.44
2018-08-21T01:21:32.316Z,16.44
2018-08-21T01:22:59.655Z,16.39
2018-08-21T01:24:27.864Z,16.33
2018-08-21T01:25:54.245Z,16.26
2018-08-21T01:27:22.851Z,16.22
2018-08-21T01:28:50.144Z,16.15
2018-08-21T01:30:16.866Z,16.13
2018-08-21T01:31:43.767Z,16.14
2018-08-21T01:33:10.165Z,16.14
2018-08-21T01:34:38.626Z,16.12
2018-08-21T01:36:06.085Z,16.10
2018-08-21T01:37:32.410Z,16.06
2018-08-21T01:38:59.193Z,16.03
2018-08-21T01:40:26.584Z,16.01
2018-08-21T01:41:54.795Z,15.94
2018-08-21T01:43:20.951Z,15.87
2018-08-21T01:44:48.294Z,15.83
2018-08-21T01:46:15.841Z,15.76
2018-08-21T01:47:42.030Z,15.76
2018-08-21T01:49:09.538Z,15.72
2018-08-21T01:50:35.691Z,15.66
2018-08-21T01:52:04.081Z,15.63
2018-08-21T01:53:30.364Z,15.57
2018-08-21T01:54:58.890Z,15.45
2018-08-21T02:01:15.580Z,15.55
2018-08-21T02:02:43.375Z,15.57
2018-08-21T02:04:08.612Z,15.56
2018-08-21T02:05:36.966Z,15.55
2018-08-21T02:07:03.727Z,15.52
2018-08-21T02:08:30.036Z,15.46
2018-08-21T02:09:57.534Z,15.47
2018-08-21T02:11:25.395Z,15.47
2018-08-21T02:19:09.674Z,15.43
2018-08-21T02:44:11.336Z,15.59
2018-08-21T02:45:37.015Z,15.68
2018-08-21T02:47:04.126Z,15.76
2018-08-21T02:48:31.487Z,15.83
2018-08-21T02:49:58.432Z,15.88
2018-08-21T02:51:24.324Z,15.92
2018-08-21T02:52:52.266Z,15.95
2018-08-21T02:54:17.810Z,15.96
2018-08-21T02:55:46.337Z,15.96
2018-08-21T02:57:12.667Z,15.96
2018-08-21T02:58:41.144Z,15.96
2018-08-21T03:00:07.671Z,15.95
2018-08-21T03:01:36.125Z,15.92
2018-08-21T03:03:02.325Z,15.89
2018-08-21T03:04:27.891Z,15.87
2018-08-21T03:05:54.648Z,15.85
2018-08-21T03:07:22.654Z,15.84
2018-08-21T03:08:49.062Z,15.82
2018-08-21T03:10:17.371Z,15.82
2018-08-21T03:11:42.810Z,15.81
2018-08-21T03:13:10.352Z,15.79
2018-08-21T03:14:38.671Z,15.77
2018-08-21T03:16:04.499Z,15.73
2018-08-21T03:17:31.828Z,15.71
2018-08-21T03:18:59.471Z,15.70
2018-08-21T03:20:26.893Z,15.68
2018-08-21T03:21:54.458Z,15.67
2018-08-21T03:23:21.173Z,15.66
2018-08-21T03:24:47.600Z,15.65
2018-08-21T03:26:14.928Z,15.63
2018-08-21T03:27:43.409Z,15.60
2018-08-21T03:29:16.035Z,15.58
2018-08-21T03:30:37.417Z,15.56
2018-08-21T03:32:05.921Z,15.53
2018-08-21T03:33:33.442Z,15.52
2018-08-21T03:35:00.095Z,15.50
2018-08-21T03:36:26.439Z,15.49
2018-08-21T03:37:53.098Z,15.47
2018-08-21T03:39:19.454Z,15.43
2018-08-21T03:40:46.887Z,15.41
2018-08-21T03:42:14.301Z,15.37
2018-08-21T03:43:43.774Z,15.33
2018-08-21T03:45:08.004Z,15.30
2018-08-21T03:46:37.377Z,15.25
2018-08-21T03:48:02.696Z,15.20
2018-08-21T03:49:28.879Z,15.16
2018-08-21T03:50:55.899Z,15.12
2018-08-21T03:52:23.229Z,15.09
2018-08-21T03:53:50.629Z,15.07
2018-08-21T03:55:16.975Z,15.05
2018-08-21T03:56:45.585Z,15.03
2018-08-21T03:58:11.873Z,15.04
2018-08-21T03:59:39.557Z,15.06
2018-08-21T04:01:06.133Z,15.07
2018-08-21T04:02:33.404Z,15.07
2018-08-21T04:03:59.710Z,15.07
2018-08-21T04:05:28.249Z,15.07
2018-08-21T04:06:54.760Z,15.07
2018-08-21T04:08:23.104Z,15.07
2018-08-21T04:09:48.495Z,15.08
2018-08-21T04:12:43.188Z,15.11
2018-08-21T04:14:10.567Z,15.11
2018-08-21T04:15:39.009Z,15.12
2018-08-21T04:17:06.442Z,15.14
2018-08-21T04:18:32.904Z,15.15
2018-08-21T04:20:01.518Z,15.15
2018-08-21T04:21:28.889Z,15.16
2018-08-21T04:22:55.854Z,15.17
2018-08-21T04:24:22.160Z,15.16
2018-08-21T04:25:49.733Z,15.16
2018-08-21T04:27:17.008Z,15.17
2018-08-21T04:28:45.216Z,15.18
2018-08-21T04:30:11.689Z,15.19
2018-08-21T04:34:54.054Z,15.11
2018-08-21T04:36:19.781Z,15.17
2018-08-21T04:37:48.295Z,15.24
2018-08-21T04:39:20.752Z,15.30
2018-08-21T04:40:41.164Z,15.35
2018-08-21T04:42:07.482Z,15.34
2018-08-21T04:43:34.890Z,15.29
2018-08-21T04:45:02.326Z,15.30
2018-08-21T04:46:29.889Z,15.32
2018-08-21T04:47:55.437Z,15.35
2018-08-21T04:49:22.193Z,15.36
2018-08-21T04:50:49.314Z,15.37
2018-08-21T04:52:17.877Z,15.39
2018-08-21T04:53:43.035Z,15.35
2018-08-21T04:56:57.990Z,15.24
2018-08-21T05:02:54.674Z,15.34
2018-08-21T05:04:22.335Z,15.44
2018-08-21T05:05:47.879Z,15.53
2018-08-21T05:07:14.309Z,15.62
2018-08-21T05:08:41.814Z,15.68
2018-08-21T05:10:10.349Z,15.71
2018-08-21T05:11:37.840Z,15.76
2018-08-21T05:13:04.314Z,15.81
2018-08-21T05:14:31.860Z,15.86
2018-08-21T05:16:00.232Z,15.91
2018-08-21T05:17:27.224Z,15.95
2018-08-21T05:18:53.908Z,15.92
2018-08-21T05:20:21.336Z,15.86
2018-08-21T05:21:48.698Z,15.77
2018-08-21T05:23:16.183Z,15.73
2018-08-21T05:24:44.662Z,15.77
2018-08-21T05:26:11.112Z,15.76
2018-08-21T05:27:38.477Z,15.82
2018-08-21T05:29:07.066Z,15.76
2018-08-21T05:30:34.446Z,15.73
2018-08-21T05:32:01.877Z,15.79
2018-08-21T05:33:29.440Z,15.87
2018-08-21T05:34:56.795Z,15.93
2018-08-21T05:36:23.470Z,16.00
2018-08-21T05:37:49.974Z,16.07
2018-08-21T05:39:18.569Z,16.16
2018-08-21T05:40:44.848Z,16.26
2018-08-21T05:42:11.401Z,16.41
2018-08-21T05:43:38.823Z,16.69
2018-08-21T05:45:07.406Z,17.02
2018-08-21T05:46:34.259Z,17.38
2018-08-21T05:47:59.660Z,17.73
2018-08-21T05:49:27.054Z,18.21
2018-08-21T05:50:54.092Z,18.72
2018-08-21T05:52:20.808Z,19.10
2018-08-21T05:53:48.153Z,19.21
2018-08-21T05:55:15.737Z,19.41
2018-08-21T05:56:42.980Z,19.64
2018-08-21T05:58:15.844Z,19.85
2018-08-21T05:59:38.028Z,20.06
2018-08-21T06:01:04.528Z,20.25
2018-08-21T06:02:31.333Z,20.38
2018-08-21T06:03:58.832Z,20.42
2018-08-21T06:05:27.150Z,20.24
2018-08-21T06:06:54.494Z,20.29
2018-08-21T06:08:21.989Z,20.36
2018-08-21T06:09:48.315Z,20.51
2018-08-21T06:11:14.926Z,20.67
2018-08-21T06:12:42.247Z,20.81
2018-08-21T06:14:09.732Z,20.80
2018-08-21T06:15:37.056Z,20.79
2018-08-21T06:17:04.524Z,20.63
2018-08-21T06:18:31.953Z,20.67
2018-08-21T06:19:58.255Z,20.76
2018-08-21T06:21:26.763Z,20.65
2018-08-21T06:22:53.191Z,20.67
2018-08-21T06:24:20.509Z,20.60
2018-08-21T06:25:48.082Z,20.35
2018-08-21T06:27:15.542Z,20.25
2018-08-21T06:28:44.187Z,20.30
2018-08-21T06:30:10.741Z,20.27
2018-08-21T06:31:38.128Z,20.24
2018-08-21T06:33:06.707Z,20.20
2018-08-21T06:34:33.883Z,19.99
2018-08-21T06:36:00.330Z,20.05
2018-08-21T06:37:28.962Z,20.12
2018-08-21T06:38:55.125Z,20.05
2018-08-21T06:40:23.606Z,20.15
2018-08-21T06:41:50.195Z,20.17
2018-08-21T06:43:16.777Z,20.18
2018-08-21T06:44:44.282Z,20.04
2018-08-21T06:46:12.148Z,19.99
2018-08-21T06:47:38.503Z,20.02
2018-08-21T06:49:06.528Z,20.09
2018-08-21T06:50:32.885Z,20.16
2018-08-21T06:52:00.492Z,20.24
2018-08-21T06:53:28.841Z,20.26
2018-08-21T06:54:55.701Z,20.31
2018-08-21T06:56:21.999Z,20.34
2018-08-21T06:57:48.764Z,20.31
2018-08-21T06:59:16.382Z,20.32
2018-08-21T07:00:44.923Z,20.39
2018-08-21T07:02:12.528Z,20.41
2018-08-21T07:03:38.952Z,20.49
2018-08-21T07:05:07.591Z,20.57
2018-08-21T07:06:33.365Z,20.62
2018-08-21T07:08:00.844Z,20.65
2018-08-21T07:09:28.340Z,20.60
2018-08-21T07:10:57.029Z,20.56
2018-08-21T07:12:24.234Z,20.54
2018-08-21T07:13:50.555Z,20.51
2018-08-21T07:15:16.211Z,20.46
2018-08-21T07:16:43.758Z,20.38
2018-08-21T07:18:11.267Z,20.35
2018-08-21T07:19:39.788Z,20.29
2018-08-21T07:21:06.384Z,20.26
2018-08-21T07:22:34.766Z,20.24
2018-08-21T07:24:02.320Z,20.16
2018-08-21T07:25:28.676Z,20.15
2018-08-21T07:26:56.242Z,20.16
2018-08-21T07:28:23.601Z,20.18
2018-08-21T07:29:51.007Z,20.20
2018-08-21T07:31:19.240Z,20.19
2018-08-21T07:32:46.763Z,20.19
2018-08-21T07:34:13.308Z,20.20
2018-08-21T07:35:40.989Z,20.22
2018-08-21T07:37:08.396Z,20.25
2018-08-21T07:38:36.248Z,20.28
2018-08-21T07:40:04.838Z,20.29
2018-08-21T07:41:31.345Z,20.31
2018-08-21T07:42:58.835Z,20.33
2018-08-21T07:44:26.931Z,20.35
2018-08-21T07:45:53.163Z,20.37
2018-08-21T07:47:20.225Z,20.41
2018-08-21T07:48:47.508Z,20.46
2018-08-21T07:50:15.167Z,20.50
2018-08-21T07:51:43.764Z,20.56
2018-08-21T07:53:09.839Z,20.62
2018-08-21T07:54:37.655Z,20.67
2018-08-21T07:56:05.337Z,20.67
2018-08-21T07:57:32.231Z,20.73
2018-08-21T07:58:59.760Z,20.74
2018-08-21T08:00:26.905Z,20.78
2018-08-21T08:01:55.576Z,20.81
2018-08-21T08:03:21.481Z,20.76
2018-08-21T08:04:48.796Z,20.75
2018-08-21T08:06:16.431Z,20.78
2018-08-21T08:07:43.905Z,20.83
2018-08-21T08:09:12.168Z,20.88
2018-08-21T08:10:38.432Z,20.92
2018-08-21T08:12:06.368Z,20.90
2018-08-21T08:13:32.573Z,20.92
2018-08-21T08:14:59.812Z,20.95
2018-08-21T08:16:27.218Z,20.99
2018-08-21T08:17:54.770Z,21.03
2018-08-21T08:19:22.216Z,21.06
2018-08-21T08:20:49.762Z,21.12
2018-08-21T08:22:17.356Z,21.17
2018-08-21T08:23:43.995Z,21.19
2018-08-21T08:25:11.420Z,21.22
2018-08-21T08:26:39.895Z,21.31
2018-08-21T08:28:06.362Z,21.37
2018-08-21T08:29:33.871Z,21.41
2018-08-21T08:31:01.393Z,21.39
2018-08-21T08:32:29.104Z,21.30
2018-08-21T08:33:55.967Z,21.15
2018-08-21T08:35:22.346Z,21.06
2018-08-21T08:36:49.808Z,21.07
2018-08-21T08:38:17.290Z,21.12
2018-08-21T08:39:45.540Z,21.17
2018-08-21T08:41:11.211Z,21.24
2018-08-21T08:42:39.710Z,21.32
2018-08-21T08:44:05.938Z,21.44
2018-08-21T08:45:33.418Z,21.55
2018-08-21T08:47:00.879Z,21.62
2018-08-21T08:48:28.017Z,21.70
2018-08-21T08:49:56.551Z,21.78
2018-08-21T08:51:22.442Z,21.91
2018-08-21T08:52:51.045Z,22.00
2018-08-21T08:54:18.487Z,22.07
2018-08-21T08:55:44.973Z,22.10
2018-08-21T08:57:12.628Z,22.10
2018-08-21T08:58:41.208Z,22.03
2018-08-21T09:00:07.726Z,22.01
2018-08-21T09:01:34.706Z,21.97
2018-08-21T09:03:01.405Z,21.89
2018-08-21T09:04:28.899Z,21.90
2018-08-21T09:05:56.121Z,21.95
2018-08-21T09:07:23.607Z,22.02
2018-08-21T09:08:50.871Z,22.07
2018-08-21T09:10:17.119Z,22.13
2018-08-21T09:11:44.645Z,22.22
2018-08-21T09:13:13.266Z,22.30
2018-08-21T09:14:39.745Z,22.34
2018-08-21T09:16:08.265Z,22.37
2018-08-21T09:17:34.867Z,22.42
2018-08-21T09:19:02.450Z,22.48
2018-08-21T09:20:30.115Z,22.60
2018-08-21T09:21:57.799Z,22.75
2018-08-21T09:23:25.366Z,22.80
2018-08-21T09:24:52.758Z,22.75
2018-08-21T09:26:20.420Z,22.67
2018-08-21T09:27:47.931Z,22.60
2018-08-21T09:29:15.393Z,22.49
2018-08-21T09:30:42.567Z,22.30
2018-08-21T09:32:10.159Z,22.20
2018-08-21T09:33:37.026Z,22.10
2018-08-21T09:35:05.527Z,21.88
2018-08-21T09:36:31.422Z,21.73
2018-08-21T09:37:58.743Z,21.63
2018-08-21T09:39:27.226Z,21.69
2018-08-21T09:40:53.776Z,21.79
2018-08-21T09:42:21.056Z,21.91
2018-08-21T09:43:48.296Z,22.00
2018-08-21T09:45:16.804Z,22.06
2018-08-21T09:46:43.298Z,22.12
2018-08-21T09:48:09.924Z,22.22
2018-08-21T09:49:37.487Z,22.35
2018-08-21T09:51:06.261Z,22.51
2018-08-21T09:52:33.739Z,22.65
2018-08-21T09:54:01.289Z,22.82
2018-08-21T09:55:28.942Z,22.98
2018-08-21T09:56:55.558Z,23.11
2018-08-21T09:58:23.051Z,23.18
2018-08-21T09:59:50.236Z,23.17
2018-08-21T10:01:18.796Z,23.03
2018-08-21T10:02:46.453Z,22.90
2018-08-21T10:04:14.045Z,22.75
2018-08-21T10:05:40.439Z,22.78
2018-08-21T10:07:08.491Z,22.82
2018-08-21T10:08:35.115Z,22.77
2018-08-21T10:10:02.617Z,22.74
2018-08-21T10:11:29.798Z,22.70
2018-08-21T10:12:58.322Z,22.78
2018-08-21T10:14:24.572Z,22.81
2018-08-21T10:15:51.970Z,22.84
2018-08-21T10:17:19.641Z,22.86
2018-08-21T10:18:47.335Z,22.95
2018-08-21T10:20:15.909Z,23.04
2018-08-21T10:21:42.441Z,23.12
2018-08-21T10:23:10.094Z,23.23
2018-08-21T10:24:37.563Z,23.32
2018-08-21T10:26:06.182Z,23.37
2018-08-21T10:27:32.661Z,23.40
2018-08-21T10:29:00.415Z,23.34
2018-08-21T10:30:26.785Z,23.23
2018-08-21T10:31:53.915Z,23.17
2018-08-21T10:33:21.143Z,23.17
2018-08-21T10:34:49.454Z,23.23
2018-08-21T10:36:16.077Z,23.27
2018-08-21T10:37:42.502Z,23.35
2018-08-21T10:39:10.184Z,23.38
2018-08-21T10:40:38.864Z,23.26
2018-08-21T10:42:04.639Z,23.15
2018-08-21T10:43:33.290Z,23.07
2018-08-21T10:45:00.332Z,23.01
2018-08-21T10:46:27.174Z,22.99
2018-08-21T10:47:53.240Z,22.86
2018-08-21T10:49:20.862Z,22.83
2018-08-21T10:50:49.317Z,22.69
2018-08-21T10:52:15.915Z,22.66
2018-08-21T10:53:44.589Z,22.62
2018-08-21T10:55:10.385Z,22.58
2018-08-21T10:56:37.991Z,22.53
2018-08-21T10:58:06.483Z,22.46
2018-08-21T10:59:33.026Z,22.49
2018-08-21T11:00:59.999Z,22.58
2018-08-21T11:02:27.640Z,22.75
2018-08-21T11:03:55.130Z,22.86
2018-08-21T11:05:22.641Z,22.87
2018-08-21T11:06:50.082Z,22.90
2018-08-21T11:08:18.709Z,22.96
2018-08-21T11:09:45.290Z,22.98
2018-08-21T11:11:12.690Z,23.03
2018-08-21T11:12:39.565Z,22.98
2018-08-21T11:14:06.375Z,22.87
2018-08-21T11:15:33.759Z,22.91
2018-08-21T11:17:02.103Z,22.97
2018-08-21T11:18:28.556Z,23.06
2018-08-21T11:19:56.149Z,23.10
2018-08-21T11:21:23.249Z,23.03
2018-08-21T11:22:50.939Z,22.96
2018-08-21T11:24:17.311Z,22.94
2018-08-21T11:25:45.806Z,22.87
2018-08-21T11:27:12.211Z,22.90
2018-08-21T11:28:40.993Z,22.89
2018-08-21T11:30:08.342Z,22.93
2018-08-21T11:31:34.715Z,22.87
2018-08-21T11:33:01.536Z,22.72
2018-08-21T11:34:29.053Z,22.71
2018-08-21T11:35:57.345Z,22.71
2018-08-21T11:37:23.553Z,22.67
2018-08-21T11:38:50.907Z,22.57
2018-08-21T11:40:19.450Z,22.61
2018-08-21T11:41:45.996Z,22.62
2018-08-21T11:43:14.296Z,22.58
2018-08-21T11:44:40.612Z,22.66
2018-08-21T11:46:07.757Z,22.70
2018-08-21T11:47:36.208Z,22.77
2018-08-21T11:49:02.793Z,22.93
2018-08-21T11:50:29.580Z,23.03
2018-08-21T11:51:56.857Z,22.95
2018-08-21T11:53:24.070Z,22.97
2018-08-21T11:54:51.166Z,23.09
2018-08-21T11:56:18.845Z,23.18
2018-08-21T11:57:46.352Z,23.32
2018-08-21T11:59:13.112Z,23.46
2018-08-21T12:00:41.625Z,23.46
2018-08-21T12:02:07.779Z,23.64
2018-08-21T12:03:35.293Z,23.94
2018-08-21T12:05:02.808Z,24.00
2018-08-21T12:06:30.393Z,24.09
2018-08-21T12:07:57.429Z,24.16
2018-08-21T12:09:24.840Z,24.20
2018-08-21T12:10:53.003Z,24.42
2018-08-21T12:12:20.698Z,24.50
2018-08-21T12:13:46.326Z,24.68
2018-08-21T12:15:13.817Z,24.80
2018-08-21T12:16:41.487Z,25.12
2018-08-21T12:18:09.108Z,25.51
2018-08-21T12:19:36.793Z,25.90
2018-08-21T12:21:03.678Z,26.09
2018-08-21T12:22:31.271Z,25.92
2018-08-21T12:23:57.275Z,25.61
2018-08-21T12:25:24.844Z,25.34
2018-08-21T12:26:52.227Z,25.33
2018-08-21T12:28:18.808Z,25.31
2018-08-21T12:29:46.486Z,25.33
2018-08-21T12:31:14.216Z,25.12
2018-08-21T12:32:41.858Z,25.04
2018-08-21T12:34:09.385Z,24.82
2018-08-21T12:35:36.875Z,24.76
2018-08-21T12:37:04.400Z,24.88
2018-08-21T12:38:31.946Z,24.94
2018-08-21T12:39:59.484Z,25.25
2018-08-21T12:41:27.072Z,25.57
2018-08-21T12:42:54.522Z,25.81
2018-08-21T12:44:21.695Z,25.93
2018-08-21T12:45:48.499Z,25.97
2018-08-21T12:47:15.636Z,26.13
2018-08-21T12:48:43.311Z,26.27
2018-08-21T12:50:09.300Z,26.36
2018-08-21T12:51:37.024Z,26.55
2018-08-21T12:53:04.719Z,26.41
2018-08-21T12:54:33.297Z,26.42
2018-08-21T12:56:00.569Z,26.52
2018-08-21T12:57:27.885Z,26.44
2018-08-21T12:58:53.940Z,26.47
2018-08-21T13:00:21.445Z,26.46
2018-08-21T13:01:49.103Z,26.29
2018-08-21T13:03:16.943Z,25.96
2018-08-21T13:04:43.583Z,25.76
2018-08-21T13:06:11.219Z,25.42
2018-08-21T13:07:38.934Z,25.01
2018-08-21T13:09:06.619Z,24.69
2018-08-21T13:10:34.985Z,24.55
2018-08-21T13:12:01.514Z,24.49
2018-08-21T13:13:28.069Z,24.53
2018-08-21T13:14:56.517Z,24.72
2018-08-21T13:16:23.056Z,24.85
2018-08-21T13:17:51.609Z,25.10
2018-08-21T13:19:19.202Z,25.37
2018-08-21T13:20:45.745Z,25.57
2018-08-21T13:22:13.466Z,25.78
2018-08-21T13:23:41.911Z,25.99
2018-08-21T13:25:09.511Z,26.10
2018-08-21T13:26:37.117Z,26.16
2018-08-21T13:28:03.766Z,26.23
2018-08-21T13:29:30.326Z,26.23
2018-08-21T13:30:57.802Z,25.99
2018-08-21T13:32:25.024Z,25.72
2018-08-21T13:33:52.507Z,25.66
2018-08-21T13:35:18.951Z,25.54
2018-08-21T13:36:45.848Z,25.44
2018-08-21T13:38:13.247Z,25.25
2018-08-21T13:39:42.052Z,25.16
2018-08-21T13:41:09.759Z,25.02
2018-08-21T13:42:36.256Z,24.90
2018-08-21T13:44:03.816Z,24.80
2018-08-21T13:45:31.357Z,24.83
2018-08-21T13:46:58.142Z,24.85
2018-08-21T13:48:25.764Z,24.77
2018-08-21T13:49:52.749Z,24.60
2018-08-21T13:51:20.079Z,24.57
2018-08-21T13:52:46.872Z,24.37
2018-08-21T13:54:14.451Z,24.31
2018-08-21T13:55:41.701Z,24.28
2018-08-21T13:57:10.334Z,24.38
2018-08-21T13:58:37.001Z,24.48
2018-08-21T14:00:04.648Z,24.51
2018-08-21T14:01:32.018Z,24.49
2018-08-21T14:03:00.619Z,24.45
2018-08-21T14:04:27.145Z,24.44
2018-08-21T14:05:55.752Z,24.54
2018-08-21T14:07:22.113Z,24.60
2018-08-21T14:08:50.424Z,24.61
2018-08-21T14:10:16.841Z,24.62
2018-08-21T14:11:44.322Z,24.57
2018-08-21T14:13:11.854Z,24.52
2018-08-21T14:14:38.965Z,24.42
2018-08-21T14:16:06.476Z,24.40
2018-08-21T14:17:32.856Z,24.37
2018-08-21T14:19:00.488Z,24.33
2018-08-21T14:20:28.271Z,24.21
2018-08-21T14:21:54.770Z,24.23
2018-08-21T14:23:23.280Z,24.18
2018-08-21T14:24:50.947Z,24.04
2018-08-21T14:26:17.610Z,23.94
2018-08-21T14:27:46.145Z,23.87
2018-08-21T14:29:12.607Z,23.87
2018-08-21T14:30:40.218Z,23.90
2018-08-21T14:32:07.829Z,23.85
2018-08-21T14:33:36.475Z,23.74
2018-08-21T14:35:03.918Z,23.69
2018-08-21T14:36:30.461Z,23.70
2018-08-21T14:37:58.223Z,23.75
2018-08-21T14:39:24.228Z,23.71
2018-08-21T14:40:51.718Z,23.67
2018-08-21T14:42:19.527Z,23.58
2018-08-21T14:43:47.262Z,23.62
2018-08-21T14:45:15.841Z,23.67
2018-08-21T14:46:41.769Z,23.63
2018-08-21T14:48:10.396Z,23.68
2018-08-21T14:49:38.050Z,23.67
2018-08-21T14:51:04.551Z,23.67
2018-08-21T14:52:31.946Z,23.63
2018-08-21T14:54:00.563Z,23.59
2018-08-21T14:55:26.950Z,23.55
2018-08-21T14:56:55.487Z,23.55
2018-08-21T14:58:21.682Z,23.48
2018-08-21T14:59:49.355Z,23.46
2018-08-21T15:01:16.245Z,23.49
2018-08-21T15:02:43.943Z,23.55
2018-08-21T15:04:10.405Z,23.50
2018-08-21T15:05:37.905Z,23.41
2018-08-21T15:07:05.592Z,23.39
2018-08-21T15:08:32.111Z,23.43
2018-08-21T15:09:59.544Z,23.46
2018-08-21T15:11:26.119Z,23.39
2018-08-21T15:12:53.650Z,23.39
2018-08-21T15:14:21.029Z,23.37
2018-08-21T15:15:49.671Z,23.34
2018-08-21T15:17:16.219Z,23.32
2018-08-21T15:18:43.028Z,23.27
2018-08-21T15:20:10.565Z,23.23
2018-08-21T15:21:37.075Z,23.18
2018-08-21T15:23:04.765Z,23.07
2018-08-21T15:24:32.211Z,22.96
2018-08-21T15:25:59.845Z,22.83
2018-08-21T15:27:26.391Z,22.73
2018-08-21T15:28:53.934Z,22.68
2018-08-21T15:30:21.515Z,22.70
2018-08-21T15:31:49.074Z,22.66
2018-08-21T15:33:16.638Z,22.72
2018-08-21T15:34:44.123Z,22.79
2018-08-21T15:36:09.562Z,22.80
2018-08-21T15:37:37.246Z,22.73
2018-08-21T15:39:04.894Z,22.65
2018-08-21T15:40:32.436Z,22.61
2018-08-21T15:42:00.966Z,22.54
2018-08-21T15:43:27.247Z,22.47
2018-08-21T15:44:54.450Z,22.38
2018-08-21T15:46:23.036Z,22.39
2018-08-21T15:47:49.476Z,22.36
2018-08-21T15:49:17.047Z,22.41
2018-08-21T15:50:44.660Z,22.47
2018-08-21T15:52:13.290Z,22.50
2018-08-21T15:53:39.775Z,22.48
2018-08-21T15:55:06.321Z,22.43
2018-08-21T15:56:33.945Z,22.40
2018-08-21T15:58:01.667Z,22.35
2018-08-21T15:59:30.129Z,22.29
2018-08-21T16:00:56.753Z,22.25
2018-08-21T16:02:23.936Z,22.22
2018-08-21T16:03:51.567Z,22.16
2018-08-21T16:05:19.272Z,22.10
2018-08-21T16:06:46.784Z,22.03
2018-08-21T16:08:14.339Z,21.98
2018-08-21T16:09:42.926Z,21.98
2018-08-21T16:11:09.561Z,21.93
2018-08-21T16:12:36.975Z,21.86
2018-08-21T16:14:03.025Z,21.81
2018-08-21T16:15:29.845Z,21.78
2018-08-21T16:16:57.425Z,21.77
2018-08-21T16:18:25.076Z,21.73
2018-08-21T16:19:50.841Z,21.67
2018-08-21T16:21:19.432Z,21.67
2018-08-21T16:22:45.915Z,21.67
2018-08-21T16:24:14.465Z,21.68
2018-08-21T16:25:40.941Z,21.66
2018-08-21T16:27:08.720Z,21.64
2018-08-21T16:28:36.230Z,21.62
2018-08-21T16:30:03.704Z,21.64
2018-08-21T16:31:32.322Z,21.63
2018-08-21T16:32:59.804Z,21.60
2018-08-21T16:34:26.133Z,21.61
2018-08-21T16:35:53.499Z,21.63
2018-08-21T16:37:21.837Z,21.59
2018-08-21T16:38:48.611Z,21.58
2018-08-21T16:40:17.412Z,21.57
2018-08-21T16:41:44.597Z,21.56
2018-08-21T16:43:11.197Z,21.56
2018-08-21T16:44:37.749Z,21.58
2018-08-21T16:46:06.249Z,21.61
2018-08-21T16:47:32.989Z,21.59
2018-08-21T16:48:59.296Z,21.60
2018-08-21T16:50:26.856Z,21.65
2018-08-21T16:51:54.436Z,21.65
2018-08-21T16:53:22.730Z,21.61
2018-08-21T16:54:49.147Z,21.59
2018-08-21T16:56:15.714Z,21.57
2018-08-21T16:57:43.132Z,21.56
2018-08-21T16:59:11.667Z,21.51
2018-08-21T17:00:38.188Z,21.44
2018-08-21T17:02:05.960Z,21.43
2018-08-21T17:03:33.397Z,21.43
2018-08-21T17:04:59.611Z,21.45
2018-08-21T17:06:28.082Z,21.46
2018-08-21T17:07:54.685Z,21.44
2018-08-21T17:09:23.275Z,21.48
2018-08-21T17:10:49.793Z,21.40
2018-08-21T17:12:17.267Z,21.41
2018-08-21T17:13:44.879Z,21.39
2018-08-21T17:15:11.198Z,21.35
2018-08-21T17:16:39.711Z,21.32
2018-08-21T17:18:06.454Z,21.27
2018-08-21T17:19:33.970Z,21.21
2018-08-21T17:21:02.633Z,21.14
2018-08-21T17:22:28.990Z,21.11
2018-08-21T17:23:56.705Z,21.03
2018-08-21T17:25:24.054Z,20.97
2018-08-21T17:26:50.355Z,20.95
2018-08-21T17:28:17.985Z,20.92
2018-08-21T17:29:44.544Z,20.90
2018-08-21T17:31:12.146Z,20.88
2018-08-21T17:32:39.734Z,20.87
2018-08-21T17:34:07.300Z,20.85
2018-08-21T17:35:36.795Z,20.81
2018-08-21T17:37:01.040Z,20.76
2018-08-21T17:38:31.737Z,20.71
2018-08-21T17:39:55.946Z,20.68
2018-08-21T17:41:24.359Z,20.65
2018-08-21T17:42:51.645Z,20.63
2018-08-21T17:44:17.160Z,20.61
2018-08-21T17:45:45.644Z,20.61
2018-08-21T17:47:11.355Z,20.60
2018-08-21T17:48:38.865Z,20.57
2018-08-21T17:50:07.394Z,20.54
2018-08-21T17:51:34.049Z,20.49
2018-08-21T17:53:00.498Z,20.43
2018-08-21T17:54:28.142Z,20.39
2018-08-21T17:55:55.596Z,20.36
2018-08-21T17:57:23.196Z,20.33
2018-08-21T17:58:51.446Z,20.30
2018-08-21T18:00:17.979Z,20.25
2018-08-21T18:01:45.609Z,20.20
2018-08-21T18:03:13.193Z,20.15
2018-08-21T18:04:41.732Z,20.12
2018-08-21T18:06:09.158Z,20.10
2018-08-21T18:07:36.675Z,20.06
2018-08-21T18:09:04.226Z,20.01
2018-08-21T18:10:30.671Z,19.97
2018-08-21T18:11:58.049Z,19.93
2018-08-21T18:13:28.007Z,19.89
2018-08-21T18:14:51.485Z,19.88
2018-08-21T18:16:19.962Z,19.85
2018-08-21T18:17:47.548Z,19.80
2018-08-21T18:19:20.207Z,19.75
2018-08-21T18:20:41.502Z,19.71
2018-08-21T18:22:08.898Z,19.68
2018-08-21T18:23:35.425Z,19.67
2018-08-21T18:25:02.862Z,19.66
2018-08-21T18:26:30.201Z,19.61
2018-08-21T18:27:56.584Z,19.55
2018-08-21T18:29:23.184Z,19.50
2018-08-21T18:30:50.713Z,19.43
2018-08-21T18:32:18.217Z,19.39
2018-08-21T18:33:47.761Z,19.35
2018-08-21T18:35:11.887Z,19.31
2018-08-21T18:36:39.335Z,19.29
2018-08-21T18:38:09.904Z,19.27
2018-08-21T18:39:32.967Z,19.27
2018-08-21T18:41:01.322Z,19.26
2018-08-21T18:42:27.958Z,19.23
2018-08-21T18:43:54.415Z,19.18
2018-08-21T18:45:21.826Z,19.12
2018-08-21T18:46:49.509Z,19.09
2018-08-21T18:48:17.140Z,19.08
2018-08-21T18:49:44.562Z,19.09
2018-08-21T18:51:12.241Z,19.11
2018-08-21T18:52:40.847Z,19.11
2018-08-21T18:54:06.025Z,19.10
2018-08-21T18:55:34.317Z,19.10
2018-08-21T18:56:59.562Z,19.09
2018-08-21T18:58:26.427Z,19.09
2018-08-21T18:59:53.903Z,19.08
2018-08-21T19:01:21.336Z,19.07
2018-08-21T19:02:47.446Z,19.06
2018-08-21T19:04:14.799Z,19.04
2018-08-21T19:05:41.231Z,19.02
2018-08-21T19:07:07.164Z,19.01
2018-08-21T19:08:35.794Z,19.00
2018-08-21T19:10:03.286Z,19.00
2018-08-21T19:11:28.756Z,19.00
2018-08-21T19:12:56.239Z,18.97
2018-08-21T19:14:24.829Z,18.95
2018-08-21T19:15:51.134Z,18.94
2018-08-21T19:17:18.724Z,18.93
2018-08-21T19:18:46.287Z,18.91
2018-08-21T19:20:13.530Z,18.90
2018-08-21T19:21:42.091Z,18.88
2018-08-21T19:23:08.390Z,18.86
2018-08-21T19:24:34.709Z,18.80
2018-08-21T19:26:02.208Z,18.65
2018-08-21T19:27:29.429Z,18.51
2018-08-21T19:28:57.880Z,18.35